createdAt,value
2023-06-22T00:00:34.811Z,88.42
2023-06-22T00:03:33.096Z,88.78
2023-06-22T00:06:22.061Z,88.79
2023-06-22T00:09:11.652Z,88.95
2023-06-22T00:12:00.478Z,88.80
2023-06-22T00:14:49.398Z,88.65
2023-06-22T00:17:38.317Z,88.50
2023-06-22T00:20:31.838Z,88.28
2023-06-22T00:23:21.062Z,88.08
2023-06-22T00:26:09.984Z,87.91
2023-06-22T00:28:58.816Z,87.49
2023-06-22T00:31:47.768Z,87.68
2023-06-22T00:34:37.620Z,87.68
2023-06-22T00:37:27.103Z,87.52
2023-06-22T00:40:16.665Z,87.50
2023-06-22T00:43:06.468Z,87.53
2023-06-22T00:45:57.878Z,87.76
2023-06-22T00:48:46.761Z,87.64
2023-06-22T00:51:39.484Z,87.93
2023-06-22T00:54:29.946Z,88.04
2023-06-22T00:57:19.780Z,87.82
2023-06-22T01:00:21.350Z,88.39
2023-06-22T01:03:10.914Z,89.17
2023-06-22T01:06:10.473Z,89.24
2023-06-22T01:09:17.294Z,89.22
2023-06-22T01:12:08.630Z,89.40
2023-06-22T01:15:22.798Z,89.79
2023-06-22T01:18:12.212Z,89.69
2023-06-22T01:21:02.024Z,89.46
2023-06-22T01:23:55.062Z,89.63
2023-06-22T01:26:59.824Z,89.78
2023-06-22T01:29:52.599Z,89.54
2023-06-22T01:32:42.012Z,89.68
2023-06-22T01:35:31.707Z,89.38
2023-06-22T01:38:23.744Z,89.35
2023-06-22T01:41:13.770Z,89.04
2023-06-22T01:44:04.164Z,88.83
2023-06-22T01:46:54.545Z,88.95
2023-06-22T01:49:43.528Z,89.05
2023-06-22T01:52:34.952Z,89.40
2023-06-22T01:55:23.660Z,89.66
2023-06-22T01:58:12.507Z,89.43
2023-06-22T02:01:13.519Z,89.70
2023-06-22T02:04:11.319Z,89.94
2023-06-22T02:07:03.730Z,90.14
2023-06-22T02:09:56.426Z,90.35
2023-06-22T02:12:46.121Z,90.28
2023-06-22T02:15:36.501Z,90.47
2023-06-22T02:18:25.118Z,90.19
2023-06-22T02:21:13.639Z,90.48
2023-06-22T02:24:02.686Z,90.67
2023-06-22T02:26:52.773Z,90.60
2023-06-22T02:29:42.038Z,90.51
2023-06-22T02:32:35.429Z,90.53
2023-06-22T02:35:40.908Z,90.61
2023-06-22T02:38:34.589Z,90.80
2023-06-22T02:41:23.640Z,90.97
2023-06-22T02:44:12.555Z,90.83
2023-06-22T02:47:01.538Z,90.90
2023-06-22T02:49:50.563Z,90.76
2023-06-22T02:52:40.406Z,90.51
2023-06-22T02:55:29.744Z,90.55
2023-06-22T02:58:19.761Z,90.76
2023-06-22T03:01:08.624Z,90.36
2023-06-22T03:03:58.327Z,90.48
2023-06-22T03:06:52.175Z,90.58
2023-06-22T03:09:43.166Z,90.91
2023-06-22T03:12:32.852Z,90.64
2023-06-22T03:15:23.306Z,90.60
2023-06-22T03:18:13.595Z,90.64
2023-06-22T03:21:03.533Z,90.58
2023-06-22T03:23:53.989Z,90.19
2023-06-22T03:26:42.868Z,90.05
2023-06-22T03:29:31.779Z,89.81
2023-06-22T03:32:20.882Z,89.55
2023-06-22T03:35:10.023Z,89.59
2023-06-22T03:37:59.532Z,89.59
2023-06-22T03:40:48.670Z,89.70
2023-06-22T03:43:37.615Z,89.57
2023-06-22T03:46:26.864Z,88.97
2023-06-22T03:49:16.335Z,87.12
2023-06-22T03:52:05.759Z,84.61
2023-06-22T03:54:54.614Z,81.44
2023-06-22T03:57:43.817Z,79.24
2023-06-22T04:00:33.539Z,76.56
2023-06-22T04:03:23.119Z,74.68
2023-06-22T04:06:12.037Z,73.51
2023-06-22T04:09:02.064Z,71.51
2023-06-22T04:11:51.001Z,72.22
2023-06-22T04:14:39.842Z,70.65
2023-06-22T04:17:28.852Z,68.74
2023-06-22T04:20:17.941Z,68.25
2023-06-22T04:23:06.863Z,69.22
2023-06-22T04:25:57.611Z,68.89
2023-06-22T04:28:53.053Z,70.63
2023-06-22T04:31:42.338Z,70.62
2023-06-22T04:34:31.323Z,70.45
2023-06-22T04:37:20.118Z,69.55
2023-06-22T04:40:09.560Z,70.93
2023-06-22T04:42:58.434Z,71.13
2023-06-22T04:45:47.315Z,71.59
2023-06-22T04:48:36.238Z,71.80
2023-06-22T04:51:31.912Z,71.87
2023-06-22T04:54:20.760Z,72.20
2023-06-22T04:57:12.641Z,72.36
2023-06-22T05:00:17.644Z,72.54
2023-06-22T05:03:19.131Z,73.07
2023-06-22T05:06:08.500Z,73.10
2023-06-22T05:08:58.884Z,73.34
2023-06-22T05:11:48.076Z,73.60
2023-06-22T05:14:37.131Z,74.49
2023-06-22T05:17:26.609Z,75.44
2023-06-22T05:20:19.238Z,75.00
2023-06-22T05:23:08.252Z,75.04
2023-06-22T05:25:59.001Z,74.73
2023-06-22T05:28:49.130Z,73.82
2023-06-22T05:31:37.981Z,73.70
2023-06-22T05:34:27.132Z,74.05
2023-06-22T05:37:16.129Z,72.85
2023-06-22T05:40:06.012Z,73.09
2023-06-22T05:42:54.558Z,73.30
2023-06-22T05:45:43.308Z,72.89
2023-06-22T05:48:31.981Z,73.73
2023-06-22T05:51:20.502Z,72.72
2023-06-22T05:54:09.993Z,72.57
2023-06-22T05:56:58.641Z,72.87
2023-06-22T05:59:47.158Z,72.57
2023-06-22T06:02:36.937Z,71.79
2023-06-22T06:05:26.658Z,71.09
2023-06-22T06:08:15.373Z,70.64
2023-06-22T06:11:04.048Z,70.57
2023-06-22T06:13:52.747Z,70.51
2023-06-22T06:16:41.847Z,70.82
2023-06-22T06:19:30.835Z,69.59
2023-06-22T06:22:20.216Z,68.98
2023-06-22T06:25:09.183Z,68.33
2023-06-22T06:27:57.882Z,68.12
2023-06-22T06:30:48.307Z,67.42
2023-06-22T06:33:37.792Z,68.23
2023-06-22T06:36:26.345Z,68.41
2023-06-22T06:39:15.625Z,67.89
2023-06-22T06:42:06.029Z,68.14
2023-06-22T06:44:56.429Z,68.64
2023-06-22T06:47:45.581Z,67.04
2023-06-22T06:50:34.737Z,68.12
2023-06-22T06:53:23.746Z,67.61
2023-06-22T06:56:13.346Z,67.75
2023-06-22T06:59:02.408Z,67.48
2023-06-22T07:01:51.371Z,66.17
2023-06-22T07:04:40.535Z,66.41
2023-06-22T07:07:29.518Z,65.78
2023-06-22T07:10:18.521Z,66.68
2023-06-22T07:13:07.410Z,67.27
2023-06-22T07:15:56.270Z,67.46
2023-06-22T07:18:45.097Z,67.00
2023-06-22T07:21:34.018Z,66.62
2023-06-22T07:24:23.374Z,65.50
2023-06-22T07:27:13.845Z,64.84
2023-06-22T07:30:04.055Z,64.73
2023-06-22T07:32:53.057Z,64.99
2023-06-22T07:35:42.315Z,63.97
2023-06-22T07:38:33.778Z,63.71
2023-06-22T07:41:22.775Z,62.22
2023-06-22T07:44:11.689Z,62.97
2023-06-22T07:47:03.545Z,62.97
2023-06-22T07:49:53.159Z,62.58
2023-06-22T07:52:42.077Z,63.38
2023-06-22T07:55:34.093Z,64.63
2023-06-22T07:58:23.072Z,64.02
2023-06-22T08:01:13.038Z,62.72
2023-06-22T08:04:02.038Z,62.50
2023-06-22T08:06:50.986Z,62.37
2023-06-22T08:09:39.935Z,63.53
2023-06-22T08:12:29.082Z,61.95
2023-06-22T08:15:18.076Z,63.24
2023-06-22T08:18:08.656Z,62.16
2023-06-22T08:20:57.712Z,61.25
2023-06-22T08:23:46.254Z,61.88
2023-06-22T08:26:37.777Z,61.52
2023-06-22T08:29:27.589Z,61.47
2023-06-22T08:32:19.196Z,61.36
2023-06-22T08:35:09.848Z,61.14
2023-06-22T08:37:59.202Z,60.56
2023-06-22T08:40:48.118Z,60.89
2023-06-22T08:43:36.625Z,60.33
2023-06-22T08:46:31.233Z,61.21
2023-06-22T08:49:19.872Z,60.63
2023-06-22T08:52:10.128Z,60.85
2023-06-22T08:55:01.941Z,59.99
2023-06-22T08:57:50.840Z,59.81
2023-06-22T09:00:39.706Z,59.86
2023-06-22T09:03:28.700Z,58.40
2023-06-22T09:06:17.561Z,58.22
2023-06-22T09:09:07.227Z,59.30
2023-06-22T09:11:56.091Z,56.17
2023-06-22T09:14:44.931Z,57.20
2023-06-22T09:17:34.170Z,57.60
2023-06-22T09:20:23.110Z,58.29
2023-06-22T09:23:11.989Z,58.86
2023-06-22T09:26:00.921Z,57.72
2023-06-22T09:28:49.804Z,58.03
2023-06-22T09:31:38.810Z,57.50
2023-06-22T09:34:27.714Z,56.70
2023-06-22T09:37:16.726Z,55.99
2023-06-22T09:40:14.293Z,55.94
2023-06-22T09:43:03.484Z,56.02
2023-06-22T09:45:52.396Z,56.32
2023-06-22T09:48:41.261Z,56.69
2023-06-22T09:51:30.185Z,55.66
2023-06-22T09:54:19.112Z,55.35
2023-06-22T09:57:08.084Z,55.28
2023-06-22T09:59:57.192Z,54.59
2023-06-22T10:02:46.329Z,55.11
2023-06-22T10:05:35.343Z,55.06
2023-06-22T10:08:24.206Z,55.64
2023-06-22T10:11:13.185Z,55.49
2023-06-22T10:14:02.623Z,55.40
2023-06-22T10:16:53.871Z,54.96
2023-06-22T10:19:42.900Z,54.83
2023-06-22T10:22:31.815Z,55.25
2023-06-22T10:25:21.514Z,55.44
2023-06-22T10:28:10.639Z,54.65
2023-06-22T10:30:59.570Z,52.93
2023-06-22T10:33:50.811Z,54.42
2023-06-22T10:36:40.202Z,52.83
2023-06-22T10:39:29.107Z,52.09
2023-06-22T10:42:18.065Z,51.45
2023-06-22T10:45:07.777Z,52.32
2023-06-22T10:47:56.870Z,52.22
2023-06-22T10:50:45.904Z,52.31
2023-06-22T10:53:34.701Z,52.60
2023-06-22T10:56:23.587Z,51.49
2023-06-22T10:59:12.563Z,50.89
2023-06-22T11:02:01.521Z,50.18
2023-06-22T11:04:50.418Z,50.58
2023-06-22T11:10:38.253Z,49.65
2023-06-22T11:13:27.172Z,51.60
2023-06-22T11:16:17.264Z,51.50
2023-06-22T11:19:06.839Z,49.81
2023-06-22T11:21:55.753Z,49.57
2023-06-22T11:24:44.611Z,50.66
2023-06-22T11:27:33.620Z,49.30
2023-06-22T11:30:22.572Z,49.09
2023-06-22T11:33:11.531Z,48.88
2023-06-22T11:36:01.127Z,49.04
2023-06-22T11:38:50.077Z,49.89
2023-06-22T11:41:39.342Z,49.61
2023-06-22T11:44:28.410Z,49.36
2023-06-22T11:47:17.291Z,49.66
2023-06-22T11:50:07.928Z,49.48
2023-06-22T11:52:56.464Z,48.47
2023-06-22T11:55:45.286Z,48.79
2023-06-22T11:58:34.266Z,47.78
2023-06-22T12:01:22.884Z,45.56
2023-06-22T12:04:12.285Z,46.98
2023-06-22T12:07:00.850Z,47.52
2023-06-22T12:09:49.366Z,46.28
2023-06-22T12:12:37.844Z,48.17
2023-06-22T12:15:27.242Z,47.75
2023-06-22T12:18:16.301Z,47.70
2023-06-22T12:21:04.935Z,47.74
2023-06-22T12:23:53.436Z,47.69
2023-06-22T12:26:42.141Z,47.86
2023-06-22T12:29:30.785Z,46.54
2023-06-22T12:32:19.350Z,45.87
2023-06-22T12:35:13.101Z,45.17
2023-06-22T12:38:01.665Z,44.46
2023-06-22T12:40:50.675Z,45.50
2023-06-22T12:43:39.198Z,45.50
2023-06-22T12:46:27.719Z,45.95
2023-06-22T12:49:16.543Z,45.74
2023-06-22T12:52:10.125Z,43.14
2023-06-22T12:54:58.697Z,43.32
2023-06-22T12:57:47.233Z,42.92
2023-06-22T13:00:35.818Z,43.49
2023-06-22T13:03:26.401Z,43.85
2023-06-22T13:06:15.557Z,43.27
2023-06-22T13:11:58.075Z,43.26
2023-06-22T13:14:48.128Z,43.62
2023-06-22T13:17:37.530Z,44.83
2023-06-22T13:20:26.381Z,44.30
2023-06-22T13:23:15.241Z,42.96
2023-06-22T13:26:04.207Z,43.14
2023-06-22T13:28:54.011Z,44.44
2023-06-22T13:31:43.299Z,45.12
2023-06-22T13:34:32.139Z,45.52
2023-06-22T13:37:21.006Z,44.41
2023-06-22T13:40:10.150Z,43.61
2023-06-22T13:42:59.016Z,43.88
2023-06-22T13:45:47.918Z,43.05
2023-06-22T13:48:36.836Z,42.60
2023-06-22T13:51:25.726Z,42.45
2023-06-22T13:54:28.907Z,43.46
2023-06-22T13:57:18.959Z,43.43
2023-06-22T14:00:09.510Z,44.04
2023-06-22T14:03:01.170Z,43.56
2023-06-22T14:05:49.959Z,43.26
2023-06-22T14:08:42.068Z,42.93
2023-06-22T14:11:31.054Z,42.40
2023-06-22T14:14:19.588Z,42.77
2023-06-22T14:17:08.124Z,42.83
2023-06-22T14:19:56.921Z,42.46
2023-06-22T14:22:45.632Z,43.09
2023-06-22T14:25:34.483Z,44.53
2023-06-22T14:28:23.259Z,43.32
2023-06-22T14:31:11.847Z,43.94
2023-06-22T14:34:03.748Z,43.69
2023-06-22T14:36:52.276Z,42.92
2023-06-22T14:39:40.940Z,42.06
2023-06-22T14:42:31.238Z,42.49
2023-06-22T14:45:20.047Z,43.25
2023-06-22T14:48:08.644Z,43.55
2023-06-22T14:50:58.140Z,42.47
2023-06-22T14:53:47.327Z,42.60
2023-06-22T14:56:36.274Z,43.07
2023-06-22T14:59:24.836Z,42.01
2023-06-22T15:02:13.432Z,41.69
2023-06-22T15:05:02.300Z,43.46
2023-06-22T15:07:51.021Z,43.17
2023-06-22T15:10:39.654Z,42.78
2023-06-22T15:13:28.398Z,42.84
2023-06-22T15:16:17.046Z,42.55
2023-06-22T15:19:05.543Z,42.32
2023-06-22T15:21:54.094Z,42.23
2023-06-22T15:24:42.628Z,42.87
2023-06-22T15:27:31.609Z,43.75
2023-06-22T15:30:20.876Z,43.23
2023-06-22T15:33:09.834Z,42.71
2023-06-22T15:35:59.408Z,41.99
2023-06-22T15:38:48.518Z,41.98
2023-06-22T15:41:41.726Z,41.63
2023-06-22T15:44:30.815Z,42.42
2023-06-22T15:47:22.321Z,42.74
2023-06-22T15:50:11.238Z,42.86
2023-06-22T15:53:00.073Z,43.99
2023-06-22T15:55:48.911Z,43.93
2023-06-22T15:58:38.085Z,43.52
2023-06-22T16:01:27.042Z,43.33
2023-06-22T16:04:15.990Z,43.17
2023-06-22T16:07:05.041Z,43.23
2023-06-22T16:09:54.197Z,43.36
2023-06-22T16:12:45.394Z,43.58
2023-06-22T16:15:34.669Z,43.74
2023-06-22T16:18:23.587Z,42.99
2023-06-22T16:21:13.744Z,43.16
2023-06-22T16:24:02.605Z,43.96
2023-06-22T16:26:51.952Z,43.33
2023-06-22T16:29:40.822Z,43.80
2023-06-22T16:32:29.717Z,44.93
2023-06-22T16:35:18.693Z,45.51
2023-06-22T16:38:07.939Z,45.31
2023-06-22T16:40:57.245Z,45.26
2023-06-22T16:43:46.154Z,45.08
2023-06-22T16:46:37.983Z,45.04
2023-06-22T16:49:26.884Z,44.88
2023-06-22T16:52:15.688Z,45.11
2023-06-22T16:55:07.329Z,45.78
2023-06-22T16:57:58.318Z,46.82
2023-06-22T17:00:47.135Z,47.51
2023-06-22T17:03:41.212Z,47.08
2023-06-22T17:06:30.322Z,47.20
2023-06-22T17:09:20.438Z,47.57
2023-06-22T17:12:10.379Z,48.57
2023-06-22T17:14:59.891Z,47.92
2023-06-22T17:17:49.012Z,47.91
2023-06-22T17:20:37.924Z,47.31
2023-06-22T17:23:28.555Z,47.56
2023-06-22T17:26:18.397Z,48.49
2023-06-22T17:29:10.146Z,48.17
2023-06-22T17:31:59.520Z,48.93
2023-06-22T17:34:54.383Z,48.83
2023-06-22T17:37:57.570Z,49.05
2023-06-22T17:40:46.464Z,51.89
2023-06-22T17:43:48.172Z,53.20
2023-06-22T17:46:38.865Z,54.10
2023-06-22T17:49:33.175Z,55.17
2023-06-22T17:52:21.924Z,55.61
2023-06-22T17:55:11.832Z,56.13
2023-06-22T17:58:00.962Z,57.03
2023-06-22T18:00:49.979Z,57.67
2023-06-22T18:03:40.436Z,58.01
2023-06-22T18:06:31.328Z,58.55
2023-06-22T18:09:20.445Z,58.94
2023-06-22T18:12:11.032Z,59.24
2023-06-22T18:15:01.112Z,59.57
2023-06-22T18:17:52.264Z,59.84
2023-06-22T18:20:41.725Z,59.88
2023-06-22T18:23:36.597Z,60.44
2023-06-22T18:26:27.076Z,60.53
2023-06-22T18:29:15.584Z,60.90
2023-06-22T18:32:05.251Z,60.93
2023-06-22T18:34:53.925Z,61.08
2023-06-22T18:37:43.936Z,61.42
2023-06-22T18:40:32.796Z,61.56
2023-06-22T18:43:22.872Z,61.55
2023-06-22T18:46:40.534Z,61.75
2023-06-22T18:49:34.675Z,61.75
2023-06-22T18:52:27.130Z,62.23
2023-06-22T18:55:15.768Z,62.48
2023-06-22T18:58:15.241Z,62.36
2023-06-22T19:01:25.474Z,61.84
2023-06-22T19:04:18.060Z,62.08
2023-06-22T19:07:10.065Z,62.32
2023-06-22T19:10:26.995Z,62.58
2023-06-22T19:13:24.566Z,63.21
2023-06-22T19:16:14.292Z,63.56
2023-06-22T19:19:16.684Z,63.88
2023-06-22T19:22:05.656Z,63.85
2023-06-22T19:24:55.585Z,63.74
2023-06-22T19:27:44.235Z,64.28
2023-06-22T19:30:32.932Z,64.50
2023-06-22T19:33:22.899Z,64.79
2023-06-22T19:36:12.110Z,64.89
2023-06-22T19:39:00.706Z,65.29
2023-06-22T19:41:49.258Z,65.36
2023-06-22T19:44:37.723Z,65.28
2023-06-22T19:47:26.411Z,65.31
2023-06-22T19:50:15.478Z,65.23
2023-06-22T19:53:04.049Z,65.50
2023-06-22T19:55:52.642Z,65.48
2023-06-22T19:58:41.338Z,65.02
2023-06-22T20:01:29.965Z,64.43
2023-06-22T20:04:18.673Z,64.31
2023-06-22T20:07:07.796Z,64.19
2023-06-22T20:10:09.977Z,64.87
2023-06-22T20:12:58.525Z,65.14
2023-06-22T20:15:48.345Z,65.13
2023-06-22T20:18:36.871Z,64.88
2023-06-22T20:21:25.445Z,64.81
2023-06-22T20:24:14.467Z,64.90
2023-06-22T20:27:03.020Z,64.85
2023-06-22T20:29:51.557Z,65.14
2023-06-22T20:32:50.736Z,65.46
2023-06-22T20:35:39.272Z,65.96
2023-06-22T20:38:29.445Z,65.69
2023-06-22T20:41:18.048Z,65.54
2023-06-22T20:44:06.738Z,65.70
2023-06-22T20:46:56.129Z,65.55
2023-06-22T20:49:44.646Z,65.62
2023-06-22T20:52:33.398Z,66.23
2023-06-22T20:55:22.455Z,66.43
2023-06-22T20:58:11.208Z,66.09
2023-06-22T21:01:01.784Z,66.43
2023-06-22T21:03:50.549Z,66.83
2023-06-22T21:06:39.169Z,66.72
2023-06-22T21:09:32.086Z,66.70
2023-06-22T21:12:23.799Z,67.16
2023-06-22T21:15:12.507Z,67.40
2023-06-22T21:18:01.154Z,67.79
2023-06-22T21:20:49.821Z,67.68
2023-06-22T21:23:38.336Z,67.00
2023-06-22T21:26:26.990Z,66.95
2023-06-22T21:29:15.538Z,67.21
2023-06-22T21:32:04.646Z,67.51
2023-06-22T21:34:53.992Z,67.46
2023-06-22T21:37:44.742Z,68.28
2023-06-22T21:40:33.852Z,68.73
2023-06-22T21:43:22.929Z,69.07
2023-06-22T21:46:11.819Z,69.12
2023-06-22T21:49:00.766Z,69.25
2023-06-22T21:51:49.590Z,69.36
2023-06-22T21:54:38.489Z,68.79
2023-06-22T21:57:28.070Z,68.91
2023-06-22T22:00:17.216Z,68.92
2023-06-22T22:03:06.692Z,69.24
2023-06-22T22:05:56.860Z,69.60
2023-06-22T22:08:45.694Z,69.96
2023-06-22T22:11:34.493Z,70.25
2023-06-22T22:14:23.325Z,70.22
2023-06-22T22:17:12.315Z,70.57
2023-06-22T22:20:01.474Z,70.51
2023-06-22T22:22:50.382Z,70.75
2023-06-22T22:25:39.238Z,70.88
2023-06-22T22:28:28.170Z,70.59
2023-06-22T22:31:17.032Z,70.24
2023-06-22T22:34:12.226Z,70.23
2023-06-22T22:37:01.121Z,70.34
2023-06-22T22:39:50.698Z,70.72
2023-06-22T22:42:40.354Z,71.11
2023-06-22T22:45:29.657Z,70.93
2023-06-22T22:48:18.858Z,70.68
2023-06-22T22:51:09.856Z,70.49
2023-06-22T22:53:58.827Z,70.10
2023-06-22T22:56:47.590Z,70.24
2023-06-22T22:59:36.135Z,69.85
2023-06-22T23:02:24.930Z,69.89
2023-06-22T23:05:13.718Z,69.90
2023-06-22T23:08:04.882Z,70.08
2023-06-22T23:10:53.413Z,70.01
2023-06-22T23:13:41.968Z,69.96
2023-06-22T23:16:30.564Z,69.88
2023-06-22T23:19:19.159Z,70.10
2023-06-22T23:22:07.693Z,70.12
2023-06-22T23:24:56.161Z,70.05
2023-06-22T23:27:45.074Z,70.13
2023-06-22T23:30:35.972Z,70.03
2023-06-22T23:33:26.223Z,70.00
2023-06-22T23:36:16.193Z,70.16
2023-06-22T23:39:04.860Z,70.22
2023-06-22T23:41:53.416Z,70.74
2023-06-22T23:44:42.285Z,70.91
2023-06-22T23:47:31.020Z,71.40
2023-06-22T23:50:19.697Z,71.13
2023-06-22T23:53:10.096Z,71.63
2023-06-22T23:55:58.658Z,71.45
2023-06-22T23:58:49.279Z,70.91
